Time;durP1;ratioP1;P1;durP2;ratioP2;P2;SDS_P1;SDS_P2;PMS_P1;PMS_P2;Temp;Humidity;BMP_temperature;BMP_pressure;BME280_temperature;BME280_humidity;BME280_pressure;Samples;Min_cycle;Max_cycle;Signal;HPM_P1;HPM_P2
2023/10/22 00:02:37;;;;;;;11.93;4.43;;;;;;;17.71;100.00;100217.25;30979399;28;20509;-78
2023/10/22 00:17:41;;;;;;;10.63;4.43;;;;;;;17.50;100.00;100226.44;30982307;28;20498;-75
2023/10/22 00:32:44;;;;;;;8.40;4.93;;;;;;;17.42;100.00;100241.72;31002427;28;20085;-75
2023/10/22 00:47:46;;;;;;;8.80;5.10;;;;;;;17.32;100.00;100246.47;31000911;28;20446;-76
2023/10/22 01:02:48;;;;;;;11.47;6.37;;;;;;;17.22;100.00;100240.25;31003779;28;20050;-76
2023/10/22 01:17:50;;;;;;;10.30;5.13;;;;;;;17.16;100.00;100255.03;30997840;28;20387;-77
2023/10/22 01:32:53;;;;;;;16.40;6.37;;;;;;;17.21;100.00;100268.91;31003968;28;20064;-76
2023/10/22 01:47:56;;;;;;;16.60;6.53;;;;;;;17.07;100.00;100282.47;30994563;28;20049;-76
2023/10/22 02:02:58;;;;;;;18.20;8.57;;;;;;;16.99;100.00;100279.28;30990590;28;20083;-76
2023/10/22 02:18:01;;;;;;;16.80;7.50;;;;;;;17.08;100.00;100284.00;30980715;28;20046;-76
2023/10/22 02:33:03;;;;;;;13.43;6.40;;;;;;;16.87;100.00;100247.28;30988012;28;20161;-75
2023/10/22 02:48:06;;;;;;;16.20;7.03;;;;;;;16.87;100.00;100236.31;30980310;28;20054;-74
2023/10/22 03:03:08;;;;;;;20.10;6.60;;;;;;;17.05;100.00;100242.53;30989278;28;20422;-74
2023/10/22 03:18:10;;;;;;;17.57;7.03;;;;;;;17.10;100.00;100243.91;30984456;28;20514;-74
2023/10/22 03:33:19;;;;;;;24.33;8.13;;;;;;;17.08;100.00;100229.91;30981938;28;20058;-77
2023/10/22 03:48:24;;;;;;;24.53;7.63;;;;;;;17.29;100.00;100245.41;30985866;28;20050;-75
2023/10/22 04:03:26;;;;;;;21.30;7.53;;;;;;;17.35;100.00;100259.25;31002393;28;20062;-76
2023/10/22 04:18:28;;;;;;;24.00;8.73;;;;;;;17.24;100.00;100223.34;31008249;28;20054;-75
2023/10/22 04:33:31;;;;;;;25.47;9.07;;;;;;;17.43;100.00;100252.25;30994305;28;20125;-75
2023/10/22 04:48:33;;;;;;;22.23;8.93;;;;;;;17.57;100.00;100270.03;31001045;28;20042;-75
2023/10/22 05:03:36;;;;;;;23.23;7.70;;;;;;;17.51;100.00;100288.34;31002883;28;20062;-77
2023/10/22 05:18:38;;;;;;;23.63;8.00;;;;;;;17.68;100.00;100300.53;31006817;28;20046;-78
2023/10/22 05:33:42;;;;;;;22.97;8.23;;;;;;;17.76;100.00;100323.69;31003246;28;20422;-77
2023/10/22 05:48:44;;;;;;;16.60;7.13;;;;;;;17.83;100.00;100326.13;31012582;28;20050;-76
2023/10/22 06:03:46;;;;;;;16.03;7.23;;;;;;;17.71;100.00;100338.06;31004507;28;20422;-78
2023/10/22 06:18:49;;;;;;;19.23;7.83;;;;;;;17.68;100.00;100337.00;31021438;28;20058;-77
2023/10/22 06:33:51;;;;;;;20.50;7.20;;;;;;;17.68;100.00;100331.50;31021469;28;20065;-78
2023/10/22 06:48:53;;;;;;;17.87;6.77;;;;;;;17.83;100.00;100323.38;30992478;28;20101;-80
2023/10/22 07:03:55;;;;;;;24.47;8.43;;;;;;;17.86;100.00;100330.69;31003393;28;20395;-77
2023/10/22 07:18:58;;;;;;;20.53;7.77;;;;;;;18.02;100.00;100341.31;31000489;28;20119;-77
2023/10/22 07:34:00;;;;;;;21.80;8.90;;;;;;;18.09;100.00;100342.22;30986446;28;20058;-79
2023/10/22 07:49:07;;;;;;;16.23;8.33;;;;;;;18.24;100.00;100349.31;30987822;28;20121;-75
2023/10/22 08:04:09;;;;;;;16.88;7.82;;;;;;;18.36;100.00;100344.84;30984869;28;20525;-75
2023/10/22 08:19:11;;;;;;;15.50;6.53;;;;;;;18.52;100.00;100357.41;30972999;28;20089;-74
2023/10/22 08:34:13;;;;;;;15.60;7.57;;;;;;;18.84;100.00;100355.88;30988340;28;20070;-76
2023/10/22 08:49:17;;;;;;;20.10;7.90;;;;;;;18.98;100.00;100349.66;30993977;28;20110;-86
2023/10/22 09:04:21;;;;;;;16.67;6.93;;;;;;;19.22;100.00;100320.13;31005378;28;20542;-75
2023/10/22 09:19:38;;;;;;;16.17;7.03;;;;;;;19.82;100.00;100315.44;30994682;28;20042;-75
2023/10/22 09:34:40;;;;;;;12.97;7.07;;;;;;;19.84;100.00;100297.16;30997834;28;20509;-74
2023/10/22 09:49:47;;;;;;;13.97;6.10;;;;;;;19.88;100.00;100289.47;30996330;28;20089;-75
2023/10/22 10:04:52;;;;;;;14.43;6.93;;;;;;;20.28;100.00;100269.53;30980797;28;20406;-74
2023/10/22 10:20:27;;;;;;;12.32;6.07;;;;;;;20.48;100.00;100243.97;30962677;28;20123;-75
2023/10/22 10:35:42;;;;;;;9.13;5.57;;;;;;;20.64;100.00;100246.19;30978372;28;20054;-76
2023/10/22 10:50:43;;;;;;;;;;;;;;;20.76;100.00;100239.56;30994417;28;20097;-76
2023/10/22 11:05:46;;;;;;;16.13;7.57;;;;;;;20.99;100.00;100235.03;30983377;28;19928;-76
2023/10/22 11:20:58;;;;;;;12.23;6.13;;;;;;;21.48;100.00;100213.16;30983510;28;20086;-73
2023/10/22 11:36:00;;;;;;;13.52;6.68;;;;;;;21.90;100.00;100234.53;30954473;28;20125;-75
2023/10/22 11:51:03;;;;;;;14.20;7.03;;;;;;;22.30;100.00;100227.97;30982908;28;20142;-75
2023/10/22 12:06:06;;;;;;;16.10;7.57;;;;;;;22.37;100.00;100225.50;30978312;28;20054;-75
2023/10/22 12:21:08;;;;;;;16.50;7.28;;;;;;;22.64;100.00;100224.09;30992164;28;20449;-76
2023/10/22 12:36:10;;;;;;;13.57;6.32;;;;;;;22.84;100.00;100219.63;31005559;28;20132;-76
2023/10/22 12:51:12;;;;;;;17.98;6.90;;;;;;;22.78;100.00;100201.00;31005728;28;20082;-77
2023/10/22 13:06:14;;;;;;;12.77;7.15;;;;;;;22.63;100.00;100213.53;31006876;28;20047;-76
2023/10/22 13:21:17;;;;;;;15.80;6.00;;;;;;;22.50;100.00;100202.91;31004143;28;20050;-75
2023/10/22 13:36:19;;;;;;;16.10;6.95;;;;;;;22.32;100.00;100220.69;31003431;28;20561;-79
2023/10/22 13:51:21;;;;;;;13.27;6.05;;;;;;;21.92;100.00;100199.63;31001012;28;20138;-74
2023/10/22 14:06:23;;;;;;;15.75;6.15;;;;;;;21.60;100.00;100157.47;30998729;28;20063;-73
2023/10/22 14:21:25;;;;;;;15.48;6.32;;;;;;;21.41;100.00;100183.97;30997655;28;20495;-76
2023/10/22 14:36:27;;;;;;;9.95;6.25;;;;;;;20.98;100.00;100194.13;31004176;28;20579;-75
2023/10/22 14:51:29;;;;;;;10.30;5.60;;;;;;;20.73;100.00;100176.31;30992503;28;20142;-76
2023/10/22 15:06:31;;;;;;;17.77;8.70;;;;;;;20.61;100.00;100152.59;30992026;28;20133;-75
2023/10/22 15:21:34;;;;;;;16.83;8.57;;;;;;;20.56;100.00;100140.28;30987733;28;20058;-76
2023/10/22 15:36:36;;;;;;;18.17;9.03;;;;;;;20.40;100.00;100149.13;30988147;28;20050;-74
2023/10/22 15:51:38;;;;;;;18.60;9.87;;;;;;;20.12;100.00;100112.19;30982190;28;20062;-75
2023/10/22 16:06:40;;;;;;;21.40;11.13;;;;;;;20.11;100.00;100116.94;30988345;28;20058;-75
2023/10/22 16:21:42;;;;;;;25.70;11.67;;;;;;;19.88;100.00;100109.66;30978539;28;20046;-75
2023/10/22 16:36:45;;;;;;;26.20;13.07;;;;;;;19.76;100.00;100119.78;30984053;28;20065;-76
2023/10/22 16:51:47;;;;;;;23.33;12.13;;;;;;;19.53;100.00;100080.19;30974741;28;20059;-77
2023/10/22 17:06:50;;;;;;;26.60;12.73;;;;;;;19.62;100.00;100062.75;30980483;28;20078;-75
2023/10/22 17:21:52;;;;;;;31.50;11.70;;;;;;;19.39;100.00;100048.66;30984743;28;20050;-77
2023/10/22 17:36:54;;;;;;;29.00;12.03;;;;;;;19.22;100.00;100039.44;30975449;28;20437;-75
2023/10/22 17:51:57;;;;;;;21.87;10.73;;;;;;;19.15;100.00;100031.56;30972118;28;20061;-76
2023/10/22 18:06:59;;;;;;;22.27;11.53;;;;;;;18.99;100.00;100021.09;30986525;28;20429;-79
2023/10/22 18:22:01;;;;;;;24.17;13.03;;;;;;;18.93;100.00;100023.00;30966448;28;20054;-76
2023/10/22 18:37:04;;;;;;;35.10;12.03;;;;;;;18.81;100.00;100015.81;30998724;28;20078;-80
2023/10/22 18:52:07;;;;;;;23.30;12.10;;;;;;;18.62;100.00;99988.53;30987484;28;20092;-75
2023/10/22 19:07:09;;;;;;;25.70;12.20;;;;;;;18.66;100.00;100004.84;30971941;28;20552;-78
2023/10/22 19:22:11;;;;;;;22.97;11.43;;;;;;;18.61;100.00;99981.53;30979045;28;20495;-78
2023/10/22 19:37:13;;;;;;;19.40;10.10;;;;;;;18.67;100.00;99968.59;30970391;28;20058;-78
2023/10/22 19:52:16;;;;;;;17.77;9.17;;;;;;;18.73;100.00;99980.44;30974029;28;20105;-77
2023/10/22 20:07:38;;;;;;;19.20;9.47;;;;;;;18.60;100.00;99963.50;30977884;28;20560;-78
2023/10/22 20:22:40;;;;;;;19.43;9.53;;;;;;;18.64;100.00;99933.84;30984584;28;20081;-79
2023/10/22 20:37:43;;;;;;;19.27;9.20;;;;;;;18.62;100.00;99936.31;31001382;28;20050;-80
2023/10/22 20:52:45;;;;;;;19.00;8.27;;;;;;;18.50;100.00;99934.56;31002663;28;20414;-78
2023/10/22 21:07:47;;;;;;;19.37;9.40;;;;;;;18.48;100.00;99948.03;31001150;28;20093;-79
2023/10/22 21:22:51;;;;;;;15.80;8.67;;;;;;;18.52;100.00;99917.63;30997606;28;20058;-77
2023/10/22 21:37:53;;;;;;;18.87;9.57;;;;;;;18.38;100.00;99936.41;30995540;28;20502;-77
2023/10/22 21:52:55;;;;;;;22.50;9.47;;;;;;;18.30;100.00;99907.03;30989363;28;20058;-78
2023/10/22 22:07:57;;;;;;;22.27;9.17;;;;;;;18.31;100.00;99886.56;30993497;28;20050;-77
2023/10/22 22:22:59;;;;;;;24.13;10.27;;;;;;;18.30;100.00;99874.06;30997786;28;20494;-77
2023/10/22 22:38:01;;;;;;;31.73;10.10;;;;;;;18.35;100.00;99870.66;30983435;28;20157;-78
2023/10/22 22:53:03;;;;;;;52.80;11.30;;;;;;;18.46;100.00;99854.31;30992192;28;20050;-78
2023/10/22 23:08:06;;;;;;;88.20;10.27;;;;;;;18.30;100.00;99843.84;30996864;28;20399;-76
2023/10/22 23:23:08;;;;;;;43.90;8.37;;;;;;;18.43;100.00;99814.03;30996588;28;20093;-74
2023/10/22 23:38:12;;;;;;;71.43;9.07;;;;;;;18.49;100.00;99798.38;30987911;28;20101;-74
2023/10/22 23:53:14;;;;;;;130.43;10.60;;;;;;;18.62;100.00;99774.13;30989839;28;20062;-74
